createdAt,value
2018-09-26T00:00:41.656Z,0.53
2018-09-26T00:03:16.298Z,0.50
2018-09-26T00:05:44.768Z,0.60
2018-09-26T00:08:13.208Z,0.63
2018-09-26T00:10:41.651Z,0.70
2018-09-26T00:13:10.164Z,0.50
2018-09-26T00:15:38.612Z,0.67
2018-09-26T00:18:07.376Z,0.50
2018-09-26T00:20:35.877Z,0.73
2018-09-26T00:23:04.401Z,0.77
2018-09-26T00:25:32.842Z,0.50
2018-09-26T00:28:01.509Z,0.80
2018-09-26T00:30:29.976Z,0.53
2018-09-26T00:32:58.442Z,0.60
2018-09-26T00:35:26.866Z,0.60
2018-09-26T00:37:55.320Z,0.40
2018-09-26T00:40:23.765Z,0.87
2018-09-26T00:42:52.237Z,0.50
2018-09-26T00:45:20.692Z,0.50
2018-09-26T00:47:49.150Z,0.60
2018-09-26T00:50:17.589Z,0.60
2018-09-26T00:52:46.088Z,0.60
2018-09-26T00:55:14.292Z,0.70
2018-09-26T00:57:42.736Z,0.77
2018-09-26T01:00:11.160Z,0.57
2018-09-26T01:02:39.580Z,0.87
2018-09-26T01:05:08.064Z,0.60
2018-09-26T01:07:36.580Z,0.50
2018-09-26T01:10:05.082Z,0.87
2018-09-26T01:12:33.549Z,0.60
2018-09-26T01:15:01.981Z,0.70
2018-09-26T01:17:30.446Z,0.80
2018-09-26T01:19:58.881Z,0.60
2018-09-26T01:22:27.471Z,0.80
2018-09-26T01:24:55.632Z,0.70
2018-09-26T01:27:24.082Z,0.70
2018-09-26T01:29:52.508Z,0.80
2018-09-26T01:32:20.963Z,0.70
2018-09-26T01:34:49.105Z,0.50
2018-09-26T01:37:17.598Z,0.50
2018-09-26T01:39:46.028Z,0.63
2018-09-26T01:42:14.477Z,0.53
2018-09-26T01:44:42.959Z,0.77
2018-09-26T01:47:11.412Z,0.70
2018-09-26T01:49:39.920Z,0.90
2018-09-26T01:52:08.382Z,0.70
2018-09-26T01:54:36.882Z,0.83
2018-09-26T01:57:05.386Z,0.87
2018-09-26T01:59:33.917Z,0.70
2018-09-26T02:02:02.464Z,0.70
2018-09-26T02:04:30.936Z,0.73
2018-09-26T02:06:59.364Z,0.80
2018-09-26T02:09:27.796Z,0.77
2018-09-26T02:11:56.276Z,0.50
2018-09-26T02:14:24.724Z,0.70
2018-09-26T02:16:53.136Z,0.60
2018-09-26T02:19:21.621Z,0.67
2018-09-26T02:21:50.034Z,0.50
2018-09-26T02:24:18.480Z,0.60
2018-09-26T02:26:46.933Z,0.70
2018-09-26T02:29:15.433Z,0.70
2018-09-26T02:31:43.888Z,0.50
2018-09-26T02:34:12.372Z,0.50
2018-09-26T02:36:40.956Z,0.90
2018-09-26T02:39:09.563Z,0.90
2018-09-26T02:41:37.988Z,0.80
2018-09-26T02:44:06.725Z,0.90
2018-09-26T02:46:35.217Z,0.70
2018-09-26T02:49:04.575Z,0.80
2018-09-26T02:51:34.273Z,0.60
2018-09-26T02:54:02.729Z,0.50
2018-09-26T02:56:31.205Z,0.50
2018-09-26T02:58:59.690Z,0.60
2018-09-26T03:01:28.289Z,0.67
2018-09-26T03:03:56.794Z,0.77
2018-09-26T03:06:25.305Z,1.10
2018-09-26T03:08:53.455Z,0.57
2018-09-26T03:11:21.972Z,0.80
2018-09-26T03:13:50.433Z,0.70
2018-09-26T03:16:19.029Z,0.67
2018-09-26T03:18:47.506Z,0.80
2018-09-26T03:21:15.949Z,0.70
2018-09-26T03:23:44.404Z,0.90
2018-09-26T03:26:13.169Z,0.87
2018-09-26T03:28:41.610Z,0.90
2018-09-26T03:31:10.066Z,1.10
2018-09-26T03:33:38.534Z,1.10
2018-09-26T03:36:07.355Z,1.00
2018-09-26T03:38:35.990Z,0.73
2018-09-26T03:41:04.489Z,0.93
2018-09-26T03:43:32.923Z,1.13
2018-09-26T03:46:01.649Z,1.27
2018-09-26T03:48:30.117Z,1.37
2018-09-26T03:50:58.580Z,1.10
2018-09-26T03:53:27.029Z,1.13
2018-09-26T03:55:55.867Z,0.93
2018-09-26T03:58:24.300Z,1.17
2018-09-26T04:00:52.744Z,0.80
2018-09-26T04:03:21.163Z,0.90
2018-09-26T04:05:49.617Z,1.10
2018-09-26T04:08:18.089Z,1.10
2018-09-26T04:10:46.550Z,1.10
2018-09-26T04:13:14.907Z,0.77
2018-09-26T04:15:57.836Z,0.90
2018-09-26T04:18:27.533Z,0.80
2018-09-26T04:20:56.503Z,1.20
2018-09-26T04:23:24.953Z,1.10
2018-09-26T04:25:53.533Z,1.27
2018-09-26T04:28:21.970Z,0.70
2018-09-26T04:30:50.594Z,1.20
2018-09-26T04:33:19.323Z,1.30
2018-09-26T04:35:47.507Z,1.07
2018-09-26T04:38:15.940Z,1.20
2018-09-26T04:40:44.412Z,1.00
2018-09-26T04:43:13.033Z,1.30
2018-09-26T04:45:41.473Z,1.07
2018-09-26T04:48:09.900Z,1.53
2018-09-26T04:50:38.425Z,0.87
2018-09-26T04:53:06.914Z,1.07
2018-09-26T04:55:35.368Z,1.07
2018-09-26T04:58:03.923Z,1.20
2018-09-26T05:00:32.322Z,1.30
2018-09-26T05:03:00.791Z,1.10
2018-09-26T05:05:29.281Z,1.10
2018-09-26T05:07:57.392Z,1.33
2018-09-26T05:10:25.862Z,1.27
2018-09-26T05:12:54.316Z,1.27
2018-09-26T05:15:22.803Z,1.17
2018-09-26T05:17:51.236Z,1.10
2018-09-26T05:20:19.721Z,1.40
2018-09-26T05:22:48.174Z,1.03
2018-09-26T05:25:16.630Z,1.23
2018-09-26T05:27:45.073Z,1.30
2018-09-26T05:30:13.541Z,0.97
2018-09-26T05:32:42.026Z,1.50
2018-09-26T05:35:10.524Z,1.13
2018-09-26T05:37:38.967Z,1.10
2018-09-26T05:40:07.144Z,1.87
2018-09-26T05:42:35.677Z,1.17
2018-09-26T05:45:04.142Z,1.33
2018-09-26T05:47:32.638Z,1.60
2018-09-26T05:50:00.787Z,1.43
2018-09-26T05:52:29.417Z,1.40
2018-09-26T05:54:57.902Z,1.13
2018-09-26T05:57:26.376Z,1.30
2018-09-26T05:59:54.808Z,1.50
2018-09-26T06:02:23.472Z,1.20
2018-09-26T06:04:51.949Z,1.20
2018-09-26T06:07:20.426Z,1.27
2018-09-26T06:09:48.840Z,1.30
2018-09-26T06:12:17.319Z,1.63
2018-09-26T06:14:45.740Z,1.30
2018-09-26T06:17:14.201Z,1.30
2018-09-26T06:19:42.673Z,1.43
2018-09-26T06:22:11.126Z,1.00
2018-09-26T06:24:39.752Z,1.30
2018-09-26T06:27:08.772Z,1.40
2018-09-26T06:29:37.289Z,1.13
2018-09-26T06:32:05.780Z,1.20
2018-09-26T06:34:34.252Z,1.30
2018-09-26T06:37:02.724Z,1.10
2018-09-26T06:39:31.170Z,1.50
2018-09-26T06:41:59.669Z,1.07
2018-09-26T06:44:28.094Z,0.90
2018-09-26T06:46:56.710Z,0.83
2018-09-26T06:49:25.177Z,0.90
2018-09-26T06:51:53.629Z,0.80
2018-09-26T06:54:22.097Z,0.80
2018-09-26T06:56:50.569Z,0.80
2018-09-26T06:59:19.269Z,1.10
2018-09-26T07:01:47.818Z,0.80
2018-09-26T07:04:16.264Z,0.90
2018-09-26T07:06:44.753Z,1.00
2018-09-26T07:09:13.244Z,0.73
2018-09-26T07:11:41.756Z,0.90
2018-09-26T07:14:10.212Z,0.70
2018-09-26T07:16:38.633Z,1.00
2018-09-26T07:19:07.225Z,1.00
2018-09-26T07:21:35.698Z,1.10
2018-09-26T07:24:04.365Z,0.97
2018-09-26T07:26:32.728Z,1.00
2018-09-26T07:29:01.227Z,1.10
2018-09-26T07:31:29.680Z,0.93
2018-09-26T07:33:58.344Z,0.70
2018-09-26T07:36:26.785Z,0.80
2018-09-26T07:38:54.952Z,0.97
2018-09-26T07:41:23.378Z,1.20
2018-09-26T07:43:52.244Z,0.90
2018-09-26T07:46:20.716Z,1.07
2018-09-26T07:48:49.494Z,1.13
2018-09-26T07:51:17.946Z,1.03
2018-09-26T07:53:46.512Z,1.30
2018-09-26T07:56:14.951Z,1.27
2018-09-26T07:58:43.387Z,0.90
2018-09-26T08:01:11.813Z,1.00
2018-09-26T08:03:40.360Z,0.93
2018-09-26T08:06:09.185Z,1.00
2018-09-26T08:08:38.497Z,1.00
2018-09-26T08:11:06.967Z,1.17
2018-09-26T08:13:35.721Z,1.10
2018-09-26T08:16:04.157Z,1.17
2018-09-26T08:18:32.664Z,0.98
2018-09-26T08:21:01.156Z,1.07
2018-09-26T08:23:29.888Z,1.00
2018-09-26T08:25:58.334Z,1.05
2018-09-26T08:28:26.873Z,1.00
2018-09-26T08:30:55.333Z,0.95
2018-09-26T08:33:23.893Z,0.80
2018-09-26T08:35:52.397Z,1.00
2018-09-26T08:38:20.873Z,1.10
2018-09-26T08:40:49.317Z,1.20
2018-09-26T08:43:18.243Z,0.90
2018-09-26T08:45:46.691Z,0.80
2018-09-26T08:48:15.192Z,0.85
2018-09-26T08:50:43.688Z,1.10
2018-09-26T08:53:12.340Z,0.93
2018-09-26T08:55:40.837Z,0.68
2018-09-26T08:58:09.273Z,1.05
2018-09-26T09:00:38.603Z,1.05
2018-09-26T09:03:08.121Z,0.80
2018-09-26T09:05:37.302Z,0.82
2018-09-26T09:08:05.711Z,0.50
2018-09-26T09:10:34.189Z,0.60
2018-09-26T09:13:02.709Z,0.80
2018-09-26T09:15:31.182Z,0.62
2018-09-26T09:17:59.629Z,0.95
2018-09-26T09:20:28.171Z,0.60
2018-09-26T09:22:56.921Z,0.62
2018-09-26T09:25:25.407Z,0.80
2018-09-26T09:27:53.853Z,0.57
2018-09-26T09:30:22.332Z,0.70
2018-09-26T09:32:51.274Z,1.55
2018-09-26T09:35:20.193Z,0.80
2018-09-26T09:37:48.760Z,0.65
2018-09-26T09:40:17.239Z,0.68
2018-09-26T09:42:45.858Z,0.75
2018-09-26T09:45:14.342Z,0.70
2018-09-26T09:47:42.847Z,0.80
2018-09-26T09:50:11.373Z,0.95
2018-09-26T09:52:39.916Z,0.70
2018-09-26T09:55:08.408Z,0.82
2018-09-26T09:57:36.892Z,0.80
2018-09-26T10:00:05.420Z,0.90
2018-09-26T10:02:34.003Z,0.75
2018-09-26T10:05:02.452Z,0.90
2018-09-26T10:07:30.926Z,0.65
2018-09-26T10:09:59.396Z,0.75
2018-09-26T10:12:27.683Z,0.60
2018-09-26T10:14:56.128Z,0.80
2018-09-26T10:17:24.577Z,0.88
2018-09-26T10:19:52.988Z,0.70
2018-09-26T10:22:21.392Z,0.70
2018-09-26T10:24:49.870Z,0.68
2018-09-26T10:27:18.406Z,0.88
2018-09-26T10:29:46.836Z,0.80
2018-09-26T10:32:15.627Z,0.60
2018-09-26T10:34:44.208Z,0.70
2018-09-26T10:37:12.703Z,1.00
2018-09-26T10:39:41.121Z,0.50
2018-09-26T10:42:09.616Z,1.00
2018-09-26T10:44:38.049Z,0.70
2018-09-26T10:47:06.501Z,0.50
2018-09-26T10:49:34.637Z,0.60
2018-09-26T10:52:03.071Z,0.88
2018-09-26T10:54:31.488Z,0.60
2018-09-26T10:56:59.941Z,1.07
2018-09-26T10:59:28.401Z,0.50
2018-09-26T11:01:56.907Z,0.68
2018-09-26T11:04:25.429Z,0.62
2018-09-26T11:06:53.979Z,0.50
2018-09-26T11:09:22.401Z,0.62
2018-09-26T11:11:50.873Z,0.70
2018-09-26T11:14:19.004Z,0.65
2018-09-26T11:16:47.485Z,0.55
2018-09-26T11:19:15.977Z,0.60
2018-09-26T11:21:44.474Z,0.70
2018-09-26T11:24:12.906Z,0.50
2018-09-26T11:26:41.542Z,0.80
2018-09-26T11:29:09.944Z,0.60
2018-09-26T11:31:38.389Z,0.60
2018-09-26T11:34:07.078Z,0.50
2018-09-26T11:36:35.220Z,0.50
2018-09-26T11:39:05.132Z,0.50
2018-09-26T11:41:33.564Z,0.60
2018-09-26T11:44:01.981Z,0.50
2018-09-26T11:46:30.410Z,0.40
2018-09-26T11:48:58.841Z,0.53
2018-09-26T11:51:27.284Z,0.50
2018-09-26T11:53:55.890Z,0.72
2018-09-26T11:56:24.370Z,0.50
2018-09-26T11:58:52.849Z,0.50
2018-09-26T12:01:21.308Z,0.50
2018-09-26T12:03:49.773Z,0.60
2018-09-26T12:06:18.282Z,0.60
2018-09-26T12:08:46.769Z,0.50
2018-09-26T12:11:15.221Z,0.47
2018-09-26T12:13:43.371Z,0.55
2018-09-26T12:16:11.941Z,0.50
2018-09-26T12:18:40.724Z,0.78
2018-09-26T12:21:09.618Z,0.60
2018-09-26T12:23:38.085Z,0.70
2018-09-26T12:26:06.560Z,0.50
2018-09-26T12:28:35.040Z,0.50
2018-09-26T12:31:03.522Z,0.70
2018-09-26T12:33:32.072Z,0.50
2018-09-26T12:36:00.248Z,0.60
2018-09-26T12:38:28.724Z,0.65
2018-09-26T12:40:57.183Z,0.65
2018-09-26T12:43:25.672Z,0.50
2018-09-26T12:45:54.158Z,0.60
2018-09-26T12:48:22.973Z,0.50
2018-09-26T12:50:51.494Z,0.60
2018-09-26T12:53:19.695Z,0.40
2018-09-26T12:55:48.120Z,0.78
2018-09-26T12:58:16.307Z,0.70
2018-09-26T13:00:44.873Z,0.50
2018-09-26T13:03:13.282Z,0.70
2018-09-26T13:05:41.753Z,0.68
2018-09-26T13:08:10.282Z,0.72
2018-09-26T13:10:38.683Z,0.80
2018-09-26T13:13:07.196Z,0.62
2018-09-26T13:15:35.670Z,0.78
2018-09-26T13:18:04.264Z,0.60
2018-09-26T13:20:32.708Z,0.82
2018-09-26T13:23:01.204Z,0.80
2018-09-26T13:25:29.768Z,0.60
2018-09-26T13:27:58.166Z,0.68
2018-09-26T13:30:26.632Z,0.53
2018-09-26T13:32:55.080Z,0.80
2018-09-26T13:35:23.527Z,0.80
2018-09-26T13:37:52.044Z,0.70
2018-09-26T13:40:20.522Z,0.75
2018-09-26T13:42:49.049Z,0.50
2018-09-26T13:45:17.455Z,0.68
2018-09-26T13:47:45.914Z,0.55
2018-09-26T13:50:14.373Z,1.45
2018-09-26T13:52:42.756Z,1.10
2018-09-26T13:55:11.189Z,0.98
2018-09-26T13:57:39.681Z,0.70
2018-09-26T14:00:08.231Z,0.65
2018-09-26T14:02:37.103Z,0.93
2018-09-26T14:05:05.488Z,1.10
2018-09-26T14:07:33.894Z,0.90
2018-09-26T14:10:02.375Z,0.85
2018-09-26T14:12:30.572Z,0.90
2018-09-26T14:14:58.996Z,0.93
2018-09-26T14:17:27.170Z,1.15
2018-09-26T14:20:12.329Z,1.30
2018-09-26T14:22:40.816Z,1.10
2018-09-26T14:25:09.590Z,0.93
2018-09-26T14:27:38.128Z,0.93
2018-09-26T14:30:07.044Z,1.42
2018-09-26T14:32:35.677Z,1.05
2018-09-26T14:35:04.676Z,1.22
2018-09-26T14:37:33.363Z,1.00
2018-09-26T14:40:01.918Z,0.70
2018-09-26T14:42:30.466Z,1.20
2018-09-26T14:44:58.704Z,1.50
2018-09-26T14:47:27.239Z,1.62
2018-09-26T14:49:56.132Z,1.70
2018-09-26T14:52:24.340Z,1.40
2018-09-26T14:54:52.924Z,1.32
2018-09-26T14:57:21.709Z,1.60
2018-09-26T14:59:50.260Z,1.60
2018-09-26T15:02:19.015Z,1.40
2018-09-26T15:04:47.577Z,1.50
2018-09-26T15:07:16.086Z,1.70
2018-09-26T15:09:44.633Z,1.25
2018-09-26T15:12:13.231Z,1.90
2018-09-26T15:14:41.765Z,1.80
2018-09-26T15:17:10.284Z,1.90
2018-09-26T15:19:39.103Z,1.80
2018-09-26T15:22:07.863Z,1.65
2018-09-26T15:24:36.423Z,1.20
2018-09-26T15:27:05.024Z,1.40
2018-09-26T15:29:33.928Z,1.65
2018-09-26T15:32:02.420Z,1.17
2018-09-26T15:34:31.028Z,0.95
2018-09-26T15:36:59.548Z,0.93
2018-09-26T15:39:27.803Z,0.85
2018-09-26T15:41:56.364Z,1.02
2018-09-26T15:44:24.978Z,0.95
2018-09-26T15:46:53.548Z,0.95
2018-09-26T15:49:22.112Z,1.02
2018-09-26T15:51:50.639Z,0.70
2018-09-26T15:54:19.230Z,1.42
2018-09-26T15:56:47.421Z,1.12
2018-09-26T15:59:15.936Z,1.17
2018-09-26T16:01:44.530Z,1.00
2018-09-26T16:04:24.073Z,0.80
2018-09-26T16:06:52.596Z,1.10
2018-09-26T16:09:21.029Z,1.17
2018-09-26T16:11:49.594Z,1.07
2018-09-26T16:14:18.097Z,1.20
2018-09-26T16:16:46.610Z,1.32
2018-09-26T16:19:15.109Z,1.32
2018-09-26T16:21:43.547Z,0.90
2018-09-26T16:24:12.000Z,1.00
2018-09-26T16:26:40.439Z,1.00
2018-09-26T16:29:09.005Z,1.17
2018-09-26T16:31:37.479Z,1.00
2018-09-26T16:34:05.658Z,6.40
2018-09-26T16:36:34.248Z,1.27
2018-09-26T16:39:02.781Z,2.55
2018-09-26T16:41:31.294Z,3.40
2018-09-26T16:43:59.767Z,1.85
2018-09-26T16:46:28.306Z,1.60
2018-09-26T16:48:56.716Z,1.40
2018-09-26T16:51:25.256Z,1.27
2018-09-26T16:53:53.738Z,1.50
2018-09-26T16:56:22.321Z,4.15
2018-09-26T16:58:50.725Z,1.57
2018-09-26T17:01:19.226Z,1.00
2018-09-26T17:03:47.675Z,1.62
2018-09-26T17:06:16.205Z,0.90
2018-09-26T17:08:44.690Z,1.00
2018-09-26T17:11:13.022Z,1.25
2018-09-26T17:13:41.725Z,1.07
2018-09-26T17:16:10.234Z,1.05
2018-09-26T17:18:38.656Z,1.07
2018-09-26T17:21:07.148Z,1.05
2018-09-26T17:23:35.612Z,1.47
2018-09-26T17:26:04.138Z,1.10
2018-09-26T17:28:32.586Z,1.77
2018-09-26T17:31:01.052Z,1.47
2018-09-26T17:33:29.501Z,1.27
2018-09-26T17:35:57.951Z,1.57
2018-09-26T17:38:26.377Z,1.77
2018-09-26T17:40:54.824Z,1.62
2018-09-26T17:43:23.021Z,1.70
2018-09-26T17:45:51.464Z,1.57
2018-09-26T17:48:19.966Z,1.82
2018-09-26T17:50:48.407Z,1.87
2018-09-26T17:53:16.858Z,1.82
2018-09-26T17:55:45.280Z,1.27
2018-09-26T17:58:13.766Z,2.02
2018-09-26T18:00:42.428Z,1.35
2018-09-26T18:03:10.908Z,1.32
2018-09-26T18:05:39.388Z,1.85
2018-09-26T18:08:07.872Z,1.60
2018-09-26T18:10:36.316Z,1.92
2018-09-26T18:13:04.876Z,1.85
2018-09-26T18:15:33.044Z,2.00
2018-09-26T18:18:01.222Z,2.65
2018-09-26T18:20:29.732Z,2.08
2018-09-26T18:22:58.114Z,1.50
2018-09-26T18:25:27.029Z,1.47
2018-09-26T18:27:55.612Z,1.27
2018-09-26T18:30:23.674Z,1.50
2018-09-26T18:32:52.170Z,1.60
2018-09-26T18:35:20.601Z,1.65
2018-09-26T18:37:48.788Z,1.60
2018-09-26T18:40:17.221Z,1.50
2018-09-26T18:42:45.693Z,1.50
2018-09-26T18:45:14.172Z,2.30
2018-09-26T18:47:42.887Z,1.82
2018-09-26T18:50:11.372Z,1.98
2018-09-26T18:52:40.069Z,1.50
2018-09-26T18:55:08.753Z,1.67
2018-09-26T18:57:37.196Z,1.40
2018-09-26T19:00:05.686Z,1.45
2018-09-26T19:02:34.165Z,1.80
2018-09-26T19:05:02.430Z,2.22
2018-09-26T19:07:30.816Z,1.40
2018-09-26T19:09:59.305Z,1.70
2018-09-26T19:12:27.538Z,1.47
2018-09-26T19:14:56.138Z,1.65
2018-09-26T19:17:24.598Z,1.40
2018-09-26T19:19:52.722Z,1.42
2018-09-26T19:22:21.182Z,1.60
2018-09-26T19:24:49.681Z,2.27
2018-09-26T19:27:18.197Z,1.72
2018-09-26T19:29:46.393Z,1.82
2018-09-26T19:32:14.871Z,1.95
2018-09-26T19:34:43.324Z,1.60
2018-09-26T19:37:11.834Z,1.47
2018-09-26T19:39:41.255Z,1.60
2018-09-26T19:42:09.730Z,1.47
2018-09-26T19:44:38.212Z,1.92
2018-09-26T19:47:06.373Z,1.80
2018-09-26T19:49:34.816Z,1.60
2018-09-26T19:52:03.281Z,1.70
2018-09-26T19:54:31.766Z,1.60
2018-09-26T19:57:00.271Z,1.50
2018-09-26T19:59:28.952Z,1.45
2018-09-26T20:01:57.421Z,1.30
2018-09-26T20:04:25.880Z,1.60
2018-09-26T20:06:54.053Z,1.20
2018-09-26T20:09:22.250Z,1.35
2018-09-26T20:11:50.709Z,1.00
2018-09-26T20:14:19.180Z,1.27
2018-09-26T20:16:47.665Z,1.42
2018-09-26T20:19:16.121Z,1.40
2018-09-26T20:21:44.547Z,1.40
2018-09-26T20:24:13.013Z,1.50
2018-09-26T20:26:41.541Z,1.52
2018-09-26T20:29:09.977Z,1.52
2018-09-26T20:31:38.506Z,1.30
2018-09-26T20:34:07.202Z,1.42
2018-09-26T20:36:35.714Z,1.53
2018-09-26T20:39:05.837Z,1.53
2018-09-26T20:41:34.265Z,1.70
2018-09-26T20:44:02.780Z,1.73
2018-09-26T20:46:31.297Z,1.93
2018-09-26T20:48:59.789Z,1.30
2018-09-26T20:51:28.205Z,1.50
2018-09-26T20:53:56.675Z,1.25
2018-09-26T20:56:25.150Z,1.50
2018-09-26T20:58:53.624Z,1.30
2018-09-26T21:01:22.069Z,1.40
2018-09-26T21:03:50.568Z,1.67
2018-09-26T21:06:19.115Z,1.80
2018-09-26T21:08:47.254Z,1.63
2018-09-26T21:11:15.784Z,1.57
2018-09-26T21:13:44.236Z,2.03
2018-09-26T21:16:12.793Z,1.87
2018-09-26T21:18:41.386Z,1.50
2018-09-26T21:21:09.568Z,1.45
2018-09-26T21:23:38.006Z,1.20
2018-09-26T21:26:06.517Z,1.40
2018-09-26T21:28:34.977Z,1.52
2018-09-26T21:31:03.557Z,1.53
2018-09-26T21:33:32.134Z,1.47
2018-09-26T21:36:00.683Z,1.50
2018-09-26T21:38:29.410Z,1.70
2018-09-26T21:40:57.967Z,1.20
2018-09-26T21:43:26.412Z,1.47
2018-09-26T21:45:54.919Z,1.40
2018-09-26T21:48:23.434Z,1.47
2018-09-26T21:50:51.916Z,1.60
2018-09-26T21:53:20.370Z,1.60
2018-09-26T21:55:48.856Z,1.30
2018-09-26T21:58:17.268Z,1.83
2018-09-26T22:00:51.130Z,1.30
2018-09-26T22:03:19.580Z,1.63
2018-09-26T22:05:48.166Z,1.60
2018-09-26T22:08:16.610Z,1.73
2018-09-26T22:10:45.053Z,1.93
2018-09-26T22:13:13.514Z,1.50
2018-09-26T22:15:41.973Z,1.67
2018-09-26T22:18:10.394Z,1.60
2018-09-26T22:20:38.843Z,1.70
2018-09-26T22:23:07.268Z,1.40
2018-09-26T22:25:35.910Z,1.40
2018-09-26T22:28:04.335Z,1.67
2018-09-26T22:30:32.874Z,1.10
2018-09-26T22:33:01.353Z,1.17
2018-09-26T22:35:29.988Z,1.00
2018-09-26T22:37:58.434Z,1.33
2018-09-26T22:40:26.901Z,1.53
2018-09-26T22:42:55.328Z,1.23
2018-09-26T22:45:24.106Z,1.10
2018-09-26T22:47:52.601Z,0.80
2018-09-26T22:50:21.052Z,0.97
2018-09-26T22:52:49.462Z,1.10
2018-09-26T22:55:18.049Z,1.13
2018-09-26T22:57:46.505Z,1.00
2018-09-26T23:00:14.972Z,0.90
2018-09-26T23:02:43.425Z,1.03
2018-09-26T23:05:11.987Z,1.03
2018-09-26T23:07:40.484Z,0.97
2018-09-26T23:10:08.921Z,0.90
2018-09-26T23:12:37.529Z,1.00
2018-09-26T23:15:06.101Z,0.93
2018-09-26T23:17:34.603Z,0.90
2018-09-26T23:20:03.076Z,1.00
2018-09-26T23:22:31.541Z,1.07
2018-09-26T23:25:00.041Z,0.70
2018-09-26T23:27:28.447Z,0.70
2018-09-26T23:29:56.892Z,0.73
2018-09-26T23:32:25.365Z,1.00
2018-09-26T23:34:53.857Z,0.80
2018-09-26T23:37:22.372Z,0.90
2018-09-26T23:39:50.911Z,0.70
2018-09-26T23:42:19.352Z,0.80
2018-09-26T23:44:47.797Z,0.73
2018-09-26T23:47:16.251Z,0.57
2018-09-26T23:49:44.689Z,0.70
2018-09-26T23:52:13.172Z,0.90
2018-09-26T23:54:41.656Z,0.70
2018-09-26T23:57:10.155Z,0.73
2018-09-26T23:59:38.583Z,0.87
